createdAt,value
2019-01-13T00:00:33.940Z,16.20
2019-01-13T00:03:37.862Z,17.83
2019-01-13T00:06:41.776Z,12.87
2019-01-13T00:09:45.795Z,21.73
2019-01-13T00:12:49.745Z,10.33
2019-01-13T00:15:53.705Z,8.67
2019-01-13T00:18:57.673Z,9.50
2019-01-13T00:22:01.678Z,8.63
2019-01-13T00:25:06.152Z,11.87
2019-01-13T00:28:13.874Z,11.50
2019-01-13T00:31:17.826Z,10.13
2019-01-13T00:34:21.750Z,5.50
2019-01-13T00:37:25.778Z,7.87
2019-01-13T00:40:32.087Z,9.00
2019-01-13T00:43:36.020Z,15.47
2019-01-13T00:46:40.030Z,13.67
2019-01-13T00:49:43.880Z,15.43
2019-01-13T00:52:47.893Z,17.87
2019-01-13T00:55:51.829Z,15.47
2019-01-13T00:58:55.981Z,11.13
2019-01-13T01:01:59.978Z,12.67
2019-01-13T01:05:04.546Z,18.53
2019-01-13T01:08:09.299Z,16.30
2019-01-13T01:11:14.515Z,17.97
2019-01-13T01:14:18.530Z,19.23
2019-01-13T01:17:22.453Z,14.10
2019-01-13T01:20:26.377Z,27.60
2019-01-13T01:23:31.600Z,17.63
2019-01-13T01:26:37.561Z,19.83
2019-01-13T01:29:41.503Z,18.03
2019-01-13T01:32:46.625Z,22.60
2019-01-13T01:35:52.166Z,16.30
2019-01-13T01:38:56.032Z,25.17
2019-01-13T01:41:59.867Z,23.90
2019-01-13T01:45:04.675Z,23.30
2019-01-13T01:48:08.609Z,18.80
2019-01-13T01:51:12.437Z,26.67
2019-01-13T01:54:16.307Z,14.93
2019-01-13T01:57:20.223Z,16.00
2019-01-13T02:00:26.538Z,19.07
2019-01-13T02:03:30.558Z,17.13
2019-01-13T02:06:34.543Z,17.90
2019-01-13T02:09:38.476Z,25.20
2019-01-13T02:12:42.470Z,22.57
2019-01-13T02:15:46.727Z,17.60
2019-01-13T02:18:50.719Z,24.23
2019-01-13T02:21:54.652Z,22.80
2019-01-13T02:24:58.493Z,18.43
2019-01-13T02:28:02.484Z,16.13
2019-01-13T02:31:06.421Z,17.27
2019-01-13T02:34:10.332Z,19.63
2019-01-13T02:37:14.273Z,16.20
2019-01-13T02:40:19.519Z,13.87
2019-01-13T02:43:23.362Z,18.57
2019-01-13T02:46:27.310Z,13.03
2019-01-13T02:49:33.394Z,16.00
2019-01-13T02:52:37.311Z,20.20
2019-01-13T02:55:41.204Z,16.13
2019-01-13T02:58:45.547Z,23.57
2019-01-13T03:01:49.499Z,20.37
2019-01-13T03:04:53.749Z,19.33
2019-01-13T03:07:57.742Z,26.00
2019-01-13T03:11:01.760Z,25.63
2019-01-13T03:14:06.147Z,23.70
2019-01-13T03:17:10.150Z,21.47
2019-01-13T03:20:14.656Z,18.57
2019-01-13T03:23:20.955Z,16.20
2019-01-13T03:26:28.592Z,29.03
2019-01-13T03:29:32.518Z,18.23
2019-01-13T03:32:36.375Z,15.80
2019-01-13T03:35:40.211Z,13.73
2019-01-13T03:38:44.045Z,22.00
2019-01-13T03:41:48.194Z,17.73
2019-01-13T03:44:52.131Z,20.17
2019-01-13T03:47:56.056Z,25.50
2019-01-13T03:50:59.966Z,19.90
2019-01-13T03:54:04.056Z,21.03
2019-01-13T03:57:08.381Z,22.40
2019-01-13T04:00:31.505Z,18.30
2019-01-13T04:03:35.502Z,17.37
2019-01-13T04:06:41.539Z,13.23
2019-01-13T04:09:45.385Z,17.73
2019-01-13T04:12:50.856Z,17.83
2019-01-13T04:16:04.099Z,20.73
2019-01-13T04:19:07.954Z,22.50
2019-01-13T04:22:11.958Z,16.03
2019-01-13T04:25:15.820Z,14.10
2019-01-13T04:28:21.926Z,10.20
2019-01-13T04:31:29.554Z,11.97
2019-01-13T04:34:33.469Z,15.63
2019-01-13T04:37:39.789Z,15.30
2019-01-13T04:40:43.695Z,7.40
2019-01-13T04:43:47.609Z,12.53
2019-01-13T04:46:51.529Z,12.10
2019-01-13T04:49:55.447Z,6.87
2019-01-13T04:52:59.289Z,12.77
2019-01-13T04:56:03.297Z,16.33
2019-01-13T04:59:07.154Z,8.47
2019-01-13T05:02:11.475Z,11.80
2019-01-13T05:05:15.525Z,5.67
2019-01-13T05:08:19.514Z,9.03
2019-01-13T05:11:23.462Z,7.07
2019-01-13T05:14:27.298Z,11.53
2019-01-13T05:17:31.145Z,7.73
2019-01-13T05:20:35.012Z,11.07
2019-01-13T05:23:38.859Z,9.30
2019-01-13T05:26:42.722Z,8.80
2019-01-13T05:29:46.653Z,10.93
2019-01-13T05:32:50.773Z,11.57
2019-01-13T05:35:54.643Z,6.77
2019-01-13T05:38:58.486Z,7.57
2019-01-13T05:42:02.320Z,5.73
2019-01-13T05:45:07.215Z,4.13
2019-01-13T05:48:11.201Z,5.53
2019-01-13T05:51:15.766Z,8.67
2019-01-13T05:54:19.628Z,5.40
2019-01-13T05:57:23.550Z,9.80
2019-01-13T06:00:30.739Z,6.13
2019-01-13T06:03:37.004Z,7.20
2019-01-13T06:06:41.024Z,10.80
2019-01-13T06:09:45.034Z,5.47
2019-01-13T06:12:49.148Z,7.67
2019-01-13T06:15:53.076Z,5.57
2019-01-13T06:18:57.042Z,5.47
2019-01-13T06:22:01.020Z,4.93
2019-01-13T06:25:05.537Z,5.53
2019-01-13T06:28:09.471Z,3.77
2019-01-13T06:31:13.478Z,4.57
2019-01-13T06:34:17.925Z,10.23
2019-01-13T06:37:21.771Z,9.47
2019-01-13T06:40:27.893Z,6.27
2019-01-13T06:43:31.786Z,13.23
2019-01-13T06:46:35.703Z,6.33
2019-01-13T06:49:40.146Z,12.53
2019-01-13T06:52:44.250Z,11.80
2019-01-13T06:55:50.261Z,9.10
2019-01-13T06:58:54.086Z,8.70
2019-01-13T07:02:03.513Z,7.07
2019-01-13T07:05:06.703Z,9.23
2019-01-13T07:08:10.535Z,5.70
2019-01-13T07:11:14.451Z,9.90
2019-01-13T07:14:18.389Z,8.27
2019-01-13T07:17:22.333Z,5.50
2019-01-13T07:20:26.238Z,5.93
2019-01-13T07:23:30.174Z,6.60
2019-01-13T07:26:34.091Z,4.93
2019-01-13T07:29:37.929Z,6.23
2019-01-13T07:32:41.843Z,3.53
2019-01-13T07:35:45.763Z,4.60
2019-01-13T07:38:49.598Z,6.20
2019-01-13T07:41:53.450Z,6.03
2019-01-13T07:44:57.409Z,3.23
2019-01-13T07:48:01.249Z,3.33
2019-01-13T07:51:05.279Z,3.03
2019-01-13T07:54:09.233Z,1.10
2019-01-13T07:57:13.130Z,2.40
2019-01-13T08:00:22.382Z,1.10
2019-01-13T08:03:27.489Z,0.90
2019-01-13T08:06:31.424Z,2.77
2019-01-13T08:09:35.269Z,2.77
2019-01-13T08:12:39.111Z,2.17
2019-01-13T08:15:44.317Z,1.43
2019-01-13T08:18:48.167Z,0.87
2019-01-13T08:21:52.148Z,1.00
2019-01-13T08:24:56.037Z,2.43
2019-01-13T08:28:02.094Z,2.67
2019-01-13T08:31:06.154Z,1.17
2019-01-13T08:34:13.510Z,2.07
2019-01-13T08:37:17.401Z,1.33
2019-01-13T08:40:22.943Z,0.50
2019-01-13T08:43:26.960Z,0.60
2019-01-13T08:46:30.814Z,0.43
2019-01-13T08:49:34.999Z,1.30
2019-01-13T08:52:38.848Z,0.97
2019-01-13T08:55:42.843Z,0.93
2019-01-13T08:58:46.695Z,1.93
2019-01-13T09:01:50.544Z,1.47
2019-01-13T09:04:55.990Z,0.70
2019-01-13T09:07:59.974Z,2.03
2019-01-13T09:11:03.894Z,1.47
2019-01-13T09:14:07.812Z,2.67
2019-01-13T09:17:11.798Z,4.57
2019-01-13T09:20:27.156Z,5.30
2019-01-13T09:23:31.078Z,3.53
2019-01-13T09:26:35.101Z,3.33
2019-01-13T09:29:42.520Z,7.17
2019-01-13T09:32:44.880Z,4.07
2019-01-13T09:35:48.971Z,3.70
2019-01-13T09:38:52.953Z,5.27
2019-01-13T09:41:56.879Z,4.80
2019-01-13T09:45:00.826Z,5.27
2019-01-13T09:48:05.024Z,9.40
2019-01-13T09:51:08.969Z,9.60
2019-01-13T09:54:12.921Z,12.53
2019-01-13T09:57:18.727Z,9.37
2019-01-13T10:00:33.725Z,7.73
2019-01-13T10:03:37.746Z,8.43
2019-01-13T10:06:41.598Z,8.97
2019-01-13T10:09:45.555Z,9.13
2019-01-13T10:12:49.523Z,9.07
2019-01-13T10:16:00.475Z,9.33
2019-01-13T10:19:04.913Z,11.50
2019-01-13T10:22:08.866Z,9.83
2019-01-13T10:25:13.698Z,12.87
2019-01-13T10:28:17.701Z,11.40
2019-01-13T10:31:21.704Z,5.53
2019-01-13T10:34:28.114Z,7.57
2019-01-13T10:37:32.141Z,9.57
2019-01-13T10:40:36.061Z,9.43
2019-01-13T10:43:40.064Z,12.20
2019-01-13T10:46:44.451Z,7.47
2019-01-13T10:49:50.190Z,8.70
2019-01-13T10:52:56.366Z,3.97
2019-01-13T10:56:05.535Z,5.33
2019-01-13T10:59:12.659Z,13.20
2019-01-13T11:02:16.589Z,8.17
2019-01-13T11:05:22.360Z,8.67
2019-01-13T11:08:26.719Z,14.73
2019-01-13T11:11:30.710Z,14.10
2019-01-13T11:14:34.660Z,12.63
2019-01-13T11:17:38.680Z,16.70
2019-01-13T11:20:42.537Z,12.40
2019-01-13T11:23:49.983Z,10.00
2019-01-13T11:26:53.943Z,17.77
2019-01-13T11:29:57.806Z,13.17
2019-01-13T11:33:09.101Z,10.13
2019-01-13T11:36:10.863Z,16.63
2019-01-13T11:39:15.249Z,18.00
2019-01-13T11:42:19.288Z,15.00
2019-01-13T11:45:23.522Z,11.90
2019-01-13T11:48:27.394Z,10.97
2019-01-13T11:51:31.410Z,13.80
2019-01-13T11:54:35.289Z,18.23
2019-01-13T11:57:39.942Z,18.20
2019-01-13T12:00:47.538Z,11.70
2019-01-13T12:03:51.495Z,14.93
2019-01-13T12:06:55.447Z,18.57
2019-01-13T12:09:59.420Z,16.67
2019-01-13T12:13:06.088Z,15.43
2019-01-13T12:16:10.060Z,20.87
2019-01-13T12:19:13.936Z,14.63
2019-01-13T12:22:20.036Z,20.17
2019-01-13T12:25:24.648Z,19.83
2019-01-13T12:28:28.816Z,17.83
2019-01-13T12:31:35.808Z,15.37
2019-01-13T12:34:39.827Z,18.43
2019-01-13T12:37:43.839Z,20.20
2019-01-13T12:40:47.777Z,20.97
2019-01-13T12:43:51.642Z,13.97
2019-01-13T12:46:55.510Z,15.17
2019-01-13T12:49:59.539Z,20.30
2019-01-13T12:53:03.572Z,17.47
2019-01-13T12:56:07.528Z,13.43
2019-01-13T12:59:11.399Z,15.73
2019-01-13T13:02:15.654Z,12.90
2019-01-13T13:05:19.693Z,10.03
2019-01-13T13:08:23.639Z,8.03
2019-01-13T13:11:27.613Z,5.43
2019-01-13T13:14:33.991Z,4.50
2019-01-13T13:17:38.534Z,6.80
2019-01-13T13:20:42.476Z,4.57
2019-01-13T13:23:46.379Z,3.00
2019-01-13T13:26:50.326Z,2.53
2019-01-13T13:29:54.161Z,2.90
2019-01-13T13:33:01.421Z,6.60
2019-01-13T13:36:07.314Z,3.03
2019-01-13T13:39:14.412Z,3.30
2019-01-13T13:42:21.492Z,1.93
2019-01-13T13:45:25.520Z,2.80
2019-01-13T13:48:29.549Z,4.83
2019-01-13T13:51:33.458Z,5.00
2019-01-13T13:54:37.467Z,0.80
2019-01-13T13:57:41.475Z,2.60
2019-01-13T14:00:46.158Z,2.40
2019-01-13T14:03:50.107Z,5.90
2019-01-13T14:06:54.003Z,2.80
2019-01-13T14:09:57.940Z,3.47
2019-01-13T14:13:01.989Z,3.77
2019-01-13T14:16:06.049Z,4.23
2019-01-13T14:19:10.031Z,6.43
2019-01-13T14:22:13.932Z,10.77
2019-01-13T14:25:21.116Z,7.37
2019-01-13T14:28:25.171Z,3.93
2019-01-13T14:31:29.201Z,8.50
2019-01-13T14:34:33.144Z,13.70
2019-01-13T14:37:37.071Z,10.83
2019-01-13T14:40:42.590Z,6.50
2019-01-13T14:43:46.518Z,15.40
2019-01-13T14:46:50.415Z,16.53
2019-01-13T14:49:54.271Z,16.73
2019-01-13T14:52:58.293Z,14.40
2019-01-13T14:56:02.366Z,16.97
2019-01-13T14:59:06.712Z,17.53
2019-01-13T15:02:10.571Z,18.37
2019-01-13T15:05:14.652Z,22.73
2019-01-13T15:08:18.701Z,28.10
2019-01-13T15:11:22.610Z,21.07
2019-01-13T15:14:28.379Z,26.53
2019-01-13T15:17:35.077Z,11.23
2019-01-13T15:20:40.609Z,14.57
2019-01-13T15:23:44.649Z,10.60
2019-01-13T15:26:50.722Z,23.53
2019-01-13T15:29:56.616Z,18.10
2019-01-13T15:33:00.641Z,20.53
2019-01-13T15:36:06.559Z,11.93
2019-01-13T15:39:10.511Z,26.00
2019-01-13T15:42:14.751Z,20.53
2019-01-13T15:45:18.984Z,11.77
2019-01-13T15:48:22.955Z,18.63
2019-01-13T15:51:26.990Z,15.93
2019-01-13T15:54:30.979Z,16.43
2019-01-13T15:57:35.028Z,20.13
2019-01-13T16:00:39.517Z,16.10
2019-01-13T16:03:43.438Z,19.10
2019-01-13T16:06:49.412Z,19.17
2019-01-13T16:09:53.355Z,21.57
2019-01-13T16:12:58.057Z,20.13
2019-01-13T16:16:04.532Z,21.57
2019-01-13T16:19:10.750Z,10.60
2019-01-13T16:22:14.980Z,14.27
2019-01-13T16:25:19.016Z,20.57
2019-01-13T16:28:22.975Z,22.87
2019-01-13T16:31:26.927Z,17.60
2019-01-13T16:34:30.868Z,27.50
2019-01-13T16:37:34.797Z,14.73
2019-01-13T16:40:38.806Z,19.07
2019-01-13T16:43:44.154Z,16.93
2019-01-13T16:46:48.084Z,15.50
2019-01-13T16:49:52.063Z,18.13
2019-01-13T16:52:57.430Z,19.17
2019-01-13T16:56:01.398Z,18.57
2019-01-13T16:59:05.643Z,10.83
2019-01-13T17:02:09.582Z,17.87
2019-01-13T17:05:15.107Z,15.13
2019-01-13T17:08:19.325Z,14.77
2019-01-13T17:11:26.141Z,15.87
2019-01-13T17:14:30.374Z,16.80
2019-01-13T17:17:37.392Z,14.10
2019-01-13T17:20:41.374Z,20.17
2019-01-13T17:23:45.306Z,11.97
2019-01-13T17:26:49.371Z,20.17
2019-01-13T17:29:53.366Z,17.63
2019-01-13T17:32:57.386Z,15.70
2019-01-13T17:36:04.136Z,21.57
2019-01-13T17:39:09.600Z,23.10
2019-01-13T17:42:13.676Z,23.73
2019-01-13T17:45:18.829Z,19.73
2019-01-13T17:48:22.794Z,23.20
2019-01-13T17:51:28.890Z,17.80
2019-01-13T17:54:32.913Z,23.73
2019-01-13T17:57:37.086Z,17.80
2019-01-13T18:01:12.494Z,15.93
2019-01-13T18:04:16.662Z,18.67
2019-01-13T18:07:23.550Z,23.47
2019-01-13T18:10:27.571Z,23.60
2019-01-13T18:13:31.527Z,19.57
2019-01-13T18:16:35.466Z,16.20
2019-01-13T18:19:39.343Z,25.70
2019-01-13T18:22:47.100Z,13.97
2019-01-13T18:25:51.132Z,21.67
2019-01-13T18:28:55.206Z,15.77
2019-01-13T18:31:59.130Z,18.20
2019-01-13T18:35:03.211Z,17.90
2019-01-13T18:38:09.210Z,19.10
2019-01-13T18:41:17.307Z,13.93
2019-01-13T18:44:21.180Z,13.77
2019-01-13T18:47:25.161Z,20.03
2019-01-13T18:50:29.078Z,12.27
2019-01-13T18:53:33.106Z,15.37
2019-01-13T18:56:37.147Z,17.30
2019-01-13T18:59:41.034Z,18.10
2019-01-13T19:02:45.465Z,17.37
2019-01-13T19:05:51.222Z,21.10
2019-01-13T19:08:58.279Z,14.50
2019-01-13T19:12:04.608Z,20.73
2019-01-13T19:15:09.758Z,16.20
2019-01-13T19:18:17.481Z,16.20
2019-01-13T19:21:21.694Z,22.53
2019-01-13T19:24:28.613Z,28.63
2019-01-13T19:27:32.655Z,28.00
2019-01-13T19:30:38.760Z,24.60
2019-01-13T19:33:44.656Z,40.07
2019-01-13T19:36:48.758Z,15.00
2019-01-13T19:39:52.710Z,22.60
2019-01-13T19:42:56.764Z,20.27
2019-01-13T19:46:00.808Z,21.03
2019-01-13T19:49:12.098Z,31.10
2019-01-13T19:52:16.268Z,30.03
2019-01-13T19:55:20.639Z,25.50
2019-01-13T19:58:24.840Z,22.83
2019-01-13T20:01:29.093Z,21.63
2019-01-13T20:04:33.282Z,24.13
2019-01-13T20:07:38.501Z,23.70
2019-01-13T20:10:42.583Z,22.30
2019-01-13T20:13:46.702Z,22.63
2019-01-13T20:16:50.823Z,17.87
2019-01-13T20:19:54.966Z,23.87
2019-01-13T20:22:59.077Z,27.80
2019-01-13T20:26:03.250Z,22.30
2019-01-13T20:29:07.401Z,30.73
2019-01-13T20:32:11.761Z,17.17
2019-01-13T20:35:19.614Z,24.97
2019-01-13T20:38:26.899Z,25.53
2019-01-13T20:41:33.738Z,16.77
2019-01-13T20:44:37.664Z,36.90
2019-01-13T20:47:45.646Z,34.37
2019-01-13T20:50:49.820Z,18.97
2019-01-13T20:53:53.942Z,29.77
2019-01-13T20:56:58.125Z,27.97
2019-01-13T21:00:04.374Z,29.10
2019-01-13T21:03:09.123Z,19.70
2019-01-13T21:06:13.172Z,29.37
2019-01-13T21:09:20.055Z,30.57
2019-01-13T21:12:28.735Z,25.67
2019-01-13T21:15:37.219Z,25.60
2019-01-13T21:18:49.483Z,20.70
2019-01-13T21:21:53.523Z,16.93
2019-01-13T21:24:59.644Z,33.40
2019-01-13T21:28:03.977Z,23.80
2019-01-13T21:31:14.024Z,9.93
2019-01-13T21:34:18.052Z,17.97
2019-01-13T21:37:22.008Z,22.20
2019-01-13T21:40:25.958Z,31.80
2019-01-13T21:43:30.022Z,26.60
2019-01-13T21:46:36.979Z,30.27
2019-01-13T21:49:40.922Z,30.73
2019-01-13T21:52:47.482Z,30.40
2019-01-13T21:55:51.450Z,20.63
2019-01-13T21:58:55.450Z,26.30
2019-01-13T22:01:59.392Z,25.47
2019-01-13T22:05:03.598Z,20.40
2019-01-13T22:08:07.624Z,23.70
2019-01-13T22:11:11.829Z,28.40
2019-01-13T22:14:15.688Z,24.53
2019-01-13T22:17:19.549Z,17.33
2019-01-13T22:20:24.179Z,27.93
2019-01-13T22:23:28.119Z,21.20
2019-01-13T22:26:32.424Z,26.10
2019-01-13T22:29:38.633Z,24.87
2019-01-13T22:32:42.571Z,18.63
2019-01-13T22:35:48.314Z,23.57
2019-01-13T22:38:52.121Z,17.97
2019-01-13T22:41:56.131Z,34.00
2019-01-13T22:44:59.995Z,21.27
2019-01-13T22:48:03.856Z,13.50
2019-01-13T22:51:07.827Z,23.93
2019-01-13T22:54:11.771Z,23.43
2019-01-13T22:57:15.679Z,17.77
2019-01-13T23:00:54.660Z,18.97
2019-01-13T23:04:05.274Z,16.97
2019-01-13T23:07:09.289Z,18.77
2019-01-13T23:10:13.233Z,15.03
2019-01-13T23:13:17.577Z,12.10
2019-01-13T23:16:26.103Z,13.27
2019-01-13T23:19:30.125Z,22.13
2019-01-13T23:22:34.141Z,15.13
2019-01-13T23:25:37.986Z,15.77
2019-01-13T23:28:41.990Z,15.23
2019-01-13T23:31:46.032Z,14.13
2019-01-13T23:34:50.018Z,19.10
2019-01-13T23:37:53.984Z,16.63
2019-01-13T23:40:57.922Z,19.97
2019-01-13T23:44:01.811Z,10.87
2019-01-13T23:47:05.763Z,15.20
2019-01-13T23:50:09.858Z,16.80
2019-01-13T23:53:13.852Z,12.97
2019-01-13T23:56:19.631Z,13.77
2019-01-13T23:59:24.861Z,8.93
